Kos, Greece

2:32 PM EEST on October 25, 2014 (GMT +0300)
Ippokratis | Change Station
CLOSE
Current Station
Airport
Location: Kos,
Elevation: 423 ft
Nearby Weather Stations
Active Advisory: Thunderstorms

Elev 423 ft 36.80 °N, 27.09 °E | Updated 12 minutes ago

Scattered Clouds
Scattered Clouds
72 °F
Feels Like 72 °F
N
8
Wind Variable Wind from WSW
Gusts 23 mph

Today
High -- | Low -- °F
--% Chance of Precip.
Yesterday
High -- | Low -- °F
Precip. -- in
7:28 AM 6:22 PM
Waxing Crescent, 3% visible
Pressure 29.86 in
Visibility 6.2 miles
Clouds Scattered Clouds 2000 ft
Dew Point 48 °F
Humidity 43%
Rainfall 0.00 in
Snow Depth Not available.
UV 4 out of 12
Pollen Not available.
Air Quality Not available.
Flu Activity Not available.
METAR LGKO 251120Z 25007G20KT 9999 SCT020 22/09 Q1011

More Conditions Fewer Conditions

Pressure 29.86 in
Visibility 6.2 miles
Clouds Scattered Clouds 2000 ft
Dew Point 48 °F
Humidity 43%
Rainfall 0.00 in
Snow Depth Not available.
UV 4 out of 12
Pollen Not available.
Air Quality Not available.
Flu Activity Not available.
METAR LGKO 251120Z 25007G20KT 9999 SCT020 22/09 Q1011

More Conditions Fewer Conditions

10-Day Weather Forecast

Almanac

Astronomy

Oct. 25, 2014 Rise Set
Actual Time 7:28 AM EEST 6:22 PM EEST
Civil Twilight 7:01 AM EEST 6:49 PM EEST
Nautical Twilight 6:31 AM EEST 7:19 PM EEST
Astronomical Twilight 6:01 AM EEST 7:49 PM EEST
Moon 8:46 AM EEST 7:33 PM EEST
Length of Visible Light 11h 47m
Length of Day
10h 54m
Tomorrow will be 2m 9s shorter.
Waxing Crescent, 3% of the Moon is Illuminated
Today
Waxing Crescent
Oct 30
First Quarter
Nov 6
Full
Nov 14
Last Quarter
Nov 22
New

Yesterday's Extremes

Country Highs Country Lows

Community

WunderPhotos

Upload Photos

1,764,810 photos uploaded!

Nearby

Snow Depth

Not available.

Earthquake Activity

City Distance Mag. Time & Date
No recent earthquake activity has been reported nearby.
Minimum magnitude displayed is 2.5.

Coastal Water Temperatures

Place Temperature
No Stations Reporting

Nearby Weather Stations